sensor_id;sensor_type;location;lat;lon;timestamp;pressure;altitude;pressure_sealevel;temperature;humidity
9695;BME280;4690;52.422;13.486;2023-04-16T00:05:27;101174.41;;;11.69;100.00
9695;BME280;4690;52.422;13.486;2023-04-16T00:07:52;101187.50;;;11.67;99.86
9695;BME280;4690;52.422;13.486;2023-04-16T00:10:18;101182.91;;;11.61;100.00
9695;BME280;4690;52.422;13.486;2023-04-16T00:12:44;101183.53;;;11.63;100.00
9695;BME280;4690;52.422;13.486;2023-04-16T00:15:10;101187.97;;;11.64;100.00
9695;BME280;4690;52.422;13.486;2023-04-16T00:17:36;101186.50;;;11.61;100.00
9695;BME280;4690;52.422;13.486;2023-04-16T00:20:02;101183.84;;;11.48;100.00
9695;BME280;4690;52.422;13.486;2023-04-16T00:22:27;101181.91;;;11.55;100.00
9695;BME280;4690;52.422;13.486;2023-04-16T00:24:53;101186.28;;;11.63;100.00
9695;BME280;4690;52.422;13.486;2023-04-16T00:27:19;101181.81;;;11.69;99.89
9695;BME280;4690;52.422;13.486;2023-04-16T00:29:45;101183.69;;;11.68;99.86
9695;BME280;4690;52.422;13.486;2023-04-16T00:32:10;101189.41;;;11.66;99.61
9695;BME280;4690;52.422;13.486;2023-04-16T00:34:36;101185.78;;;11.73;99.42
9695;BME280;4690;52.422;13.486;2023-04-16T00:37:02;101182.47;;;11.64;99.18
9695;BME280;4690;52.422;13.486;2023-04-16T00:39:28;101186.13;;;11.58;99.48
9695;BME280;4690;52.422;13.486;2023-04-16T00:41:53;101195.97;;;11.65;99.61
9695;BME280;4690;52.422;13.486;2023-04-16T00:44:19;101193.22;;;11.65;99.39
9695;BME280;4690;52.422;13.486;2023-04-16T00:46:45;101190.47;;;11.65;99.45
9695;BME280;4690;52.422;13.486;2023-04-16T00:49:12;101191.34;;;11.66;99.34
9695;BME280;4690;52.422;13.486;2023-04-16T00:51:37;101189.41;;;11.66;99.18
9695;BME280;4690;52.422;13.486;2023-04-16T00:54:03;101192.16;;;11.66;99.26
9695;BME280;4690;52.422;13.486;2023-04-16T00:56:32;101196.13;;;11.71;98.96
9695;BME280;4690;52.422;13.486;2023-04-16T00:58:58;101205.22;;;11.71;99.06
9695;BME280;4690;52.422;13.486;2023-04-16T01:01:24;101199.72;;;11.71;98.85
9695;BME280;4690;52.422;13.486;2023-04-16T01:03:49;101194.91;;;11.66;98.93
9695;BME280;4690;52.422;13.486;2023-04-16T01:06:18;101196.81;;;11.66;98.78
9695;BME280;4690;52.422;13.486;2023-04-16T01:08:45;101196.13;;;11.71;98.78
9695;BME280;4690;52.422;13.486;2023-04-16T01:11:14;101196.81;;;11.66;98.85
9695;BME280;4690;52.422;13.486;2023-04-16T01:13:40;101204.59;;;11.69;98.75
9695;BME280;4690;52.422;13.486;2023-04-16T01:16:10;101205.66;;;11.68;98.36
9695;BME280;4690;52.422;13.486;2023-04-16T01:18:37;101206.53;;;11.69;98.63
9695;BME280;4690;52.422;13.486;2023-04-16T01:21:04;101207.56;;;11.67;98.59
9695;BME280;4690;52.422;13.486;2023-04-16T01:23:30;101207.56;;;11.67;98.75
9695;BME280;4690;52.422;13.486;2023-04-16T01:25:56;101209.91;;;11.64;98.46
9695;BME280;4690;52.422;13.486;2023-04-16T01:28:22;101203.53;;;11.70;98.62
9695;BME280;4690;52.422;13.486;2023-04-16T01:30:48;101214.91;;;11.74;98.43
9695;BME280;4690;52.422;13.486;2023-04-16T01:33:14;101213.03;;;11.74;98.36
9695;BME280;4690;52.422;13.486;2023-04-16T01:35:40;101212.34;;;11.79;98.41
9695;BME280;4690;52.422;13.486;2023-04-16T01:38:08;101216.09;;;11.84;98.18
9695;BME280;4690;52.422;13.486;2023-04-16T01:40:35;101220.13;;;11.82;97.99
9695;BME280;4690;52.422;13.486;2023-04-16T01:43:02;101216.53;;;11.81;98.12
9695;BME280;4690;52.422;13.486;2023-04-16T01:45:27;101224.56;;;11.83;97.99
9695;BME280;4690;52.422;13.486;2023-04-16T01:47:53;101215.72;;;11.81;97.80
9695;BME280;4690;52.422;13.486;2023-04-16T01:50:20;101219.09;;;11.76;97.96
9695;BME280;4690;52.422;13.486;2023-04-16T01:52:46;101221.66;;;11.78;98.16
9695;BME280;4690;52.422;13.486;2023-04-16T01:55:12;101221.66;;;11.78;98.01
9695;BME280;4690;52.422;13.486;2023-04-16T01:57:38;101223.31;;;11.79;98.01
9695;BME280;4690;52.422;13.486;2023-04-16T02:00:05;101220.97;;;11.82;97.89
9695;BME280;4690;52.422;13.486;2023-04-16T02:02:31;101224.31;;;11.84;98.00
9695;BME280;4690;52.422;13.486;2023-04-16T02:04:56;101227.72;;;11.86;97.73
9695;BME280;4690;52.422;13.486;2023-04-16T02:07:23;101221.59;;;11.84;98.02
9695;BME280;4690;52.422;13.486;2023-04-16T02:09:49;101228.56;;;11.87;97.62
9695;BME280;4690;52.422;13.486;2023-04-16T02:12:16;101230.47;;;11.86;97.95
9695;BME280;4690;52.422;13.486;2023-04-16T02:14:42;101227.34;;;11.76;97.78
9695;BME280;4690;52.422;13.486;2023-04-16T02:17:08;101230.72;;;11.78;98.15
9695;BME280;4690;52.422;13.486;2023-04-16T02:19:34;101230.50;;;11.80;97.81
9695;BME280;4690;52.422;13.486;2023-04-16T02:21:59;101232.38;;;11.79;98.02
9695;BME280;4690;52.422;13.486;2023-04-16T02:24:28;101237.50;;;11.76;98.00
9695;BME280;4690;52.422;13.486;2023-04-16T02:26:54;101233.47;;;11.78;97.96
9695;BME280;4690;52.422;13.486;2023-04-16T02:29:20;101231.34;;;11.80;98.17
9695;BME280;4690;52.422;13.486;2023-04-16T02:31:47;101234.09;;;11.80;97.79
9695;BME280;4690;52.422;13.486;2023-04-16T02:34:14;101237.44;;;11.82;98.12
9695;BME280;4690;52.422;13.486;2023-04-16T02:36:40;101239.41;;;11.75;97.72
9695;BME280;4690;52.422;13.486;2023-04-16T02:39:06;101245.34;;;11.72;98.17
9695;BME280;4690;52.422;13.486;2023-04-16T02:41:32;101244.97;;;11.69;98.33
9695;BME280;4690;52.422;13.486;2023-04-16T02:43:58;101252.31;;;11.68;98.38
9695;BME280;4690;52.422;13.486;2023-04-16T02:46:23;101251.47;;;11.74;98.36
9695;BME280;4690;52.422;13.486;2023-04-16T02:48:49;101248.28;;;11.77;97.88
9695;BME280;4690;52.422;13.486;2023-04-16T02:51:15;101245.28;;;11.79;98.11
9695;BME280;4690;52.422;13.486;2023-04-16T02:53:41;101256.31;;;11.72;98.12
9695;BME280;4690;52.422;13.486;2023-04-16T02:56:11;101252.94;;;11.70;98.24
9695;BME280;4690;52.422;13.486;2023-04-16T02:58:37;101245.34;;;11.72;98.51
9695;BME280;4690;52.422;13.486;2023-04-16T03:01:03;101249.75;;;11.73;98.30
9695;BME280;4690;52.422;13.486;2023-04-16T03:03:29;101252.13;;;11.70;98.20
9695;BME280;4690;52.422;13.486;2023-04-16T03:05:55;101252.94;;;11.70;98.36
9695;BME280;4690;52.422;13.486;2023-04-16T03:08:21;101249.56;;;11.75;98.31
9695;BME280;4690;52.422;13.486;2023-04-16T03:10:47;101253.75;;;11.77;98.34
9695;BME280;4690;52.422;13.486;2023-04-16T03:13:12;101250.78;;;11.79;98.26
9695;BME280;4690;52.422;13.486;2023-04-16T03:15:38;101258.56;;;11.82;97.95
9695;BME280;4690;52.422;13.486;2023-04-16T03:18:04;101251.00;;;11.77;97.93
9695;BME280;4690;52.422;13.486;2023-04-16T03:20:30;101264.50;;;11.79;97.97
9695;BME280;4690;52.422;13.486;2023-04-16T03:22:56;101259.47;;;11.76;98.00
9695;BME280;4690;52.422;13.486;2023-04-16T03:25:22;101264.28;;;11.80;97.89
9695;BME280;4690;52.422;13.486;2023-04-16T03:27:47;101261.94;;;11.84;97.78
9695;BME280;4690;52.422;13.486;2023-04-16T03:30:13;101260.03;;;11.84;97.97
9695;BME280;4690;52.422;13.486;2023-04-16T03:32:40;101269.34;;;11.83;98.22
9695;BME280;4690;52.422;13.486;2023-04-16T03:35:07;101268.53;;;11.76;97.69
9695;BME280;4690;52.422;13.486;2023-04-16T03:37:33;101265.59;;;11.78;97.95
9695;BME280;4690;52.422;13.486;2023-04-16T03:40:00;101270.25;;;11.71;97.77
9695;BME280;4690;52.422;13.486;2023-04-16T03:42:25;101277.47;;;11.72;98.06
9695;BME280;4690;52.422;13.486;2023-04-16T03:44:52;101272.41;;;11.69;98.31
9695;BME280;4690;52.422;13.486;2023-04-16T03:47:19;101274.13;;;11.63;98.16
9695;BME280;4690;52.422;13.486;2023-04-16T03:49:45;101277.91;;;11.62;98.16
9695;BME280;4690;52.422;13.486;2023-04-16T03:52:10;101279.63;;;11.63;98.24
9695;BME280;4690;52.422;13.486;2023-04-16T03:54:36;101294.84;;;11.59;98.07
9695;BME280;4690;52.422;13.486;2023-04-16T03:57:02;101283.72;;;11.47;98.03
9695;BME280;4690;52.422;13.486;2023-04-16T03:59:28;101294.25;;;11.50;98.86
9695;BME280;4690;52.422;13.486;2023-04-16T04:01:54;101291.31;;;11.52;98.49
9695;BME280;4690;52.422;13.486;2023-04-16T04:04:20;101294.88;;;11.52;98.19
9695;BME280;4690;52.422;13.486;2023-04-16T04:06:46;101293.63;;;11.48;98.40
9695;BME280;4690;52.422;13.486;2023-04-16T04:09:12;101307.78;;;11.45;98.52
9695;BME280;4690;52.422;13.486;2023-04-16T04:11:38;101312.25;;;11.39;98.14
9695;BME280;4690;52.422;13.486;2023-04-16T04:14:04;101313.75;;;11.35;98.71
9695;BME280;4690;52.422;13.486;2023-04-16T04:16:31;101313.16;;;11.27;98.71
9695;BME280;4690;52.422;13.486;2023-04-16T04:18:57;101306.81;;;11.33;98.95
9695;BME280;4690;52.422;13.486;2023-04-16T04:21:25;101313.34;;;11.32;98.43
9695;BME280;4690;52.422;13.486;2023-04-16T04:23:51;101317.78;;;11.26;98.66
9695;BME280;4690;52.422;13.486;2023-04-16T04:26:17;101305.63;;;11.15;98.59
9695;BME280;4690;52.422;13.486;2023-04-16T04:28:43;101314.88;;;11.14;99.30
9695;BME280;4690;52.422;13.486;2023-04-16T04:31:08;101319.97;;;11.11;99.44
9695;BME280;4690;52.422;13.486;2023-04-16T04:33:34;101321.50;;;10.93;99.52
9695;BME280;4690;52.422;13.486;2023-04-16T04:36:01;101319.59;;;10.94;100.00
9695;BME280;4690;52.422;13.486;2023-04-16T04:38:26;101329.06;;;11.05;99.53
9695;BME280;4690;52.422;13.486;2023-04-16T04:40:53;101329.50;;;11.02;99.96
9695;BME280;4690;52.422;13.486;2023-04-16T04:43:19;101320.41;;;11.08;99.68
9695;BME280;4690;52.422;13.486;2023-04-16T04:45:46;101326.28;;;11.11;99.75
9695;BME280;4690;52.422;13.486;2023-04-16T04:48:12;101331.97;;;11.16;99.46
9695;BME280;4690;52.422;13.486;2023-04-16T04:50:38;101332.19;;;11.15;99.46
9695;BME280;4690;52.422;13.486;2023-04-16T04:53:05;101332.19;;;11.15;99.18
9695;BME280;4690;52.422;13.486;2023-04-16T04:55:36;101327.09;;;11.25;99.15
9695;BME280;4690;52.422;13.486;2023-04-16T04:58:04;101339.94;;;11.31;99.12
9695;BME280;4690;52.422;13.486;2023-04-16T05:00:31;101343.94;;;11.29;98.93
9695;BME280;4690;52.422;13.486;2023-04-16T05:03:00;101344.81;;;11.29;98.71
9695;BME280;4690;52.422;13.486;2023-04-16T05:05:26;101344.38;;;11.32;98.75
9695;BME280;4690;52.422;13.486;2023-04-16T05:07:52;101350.72;;;11.33;98.75
9695;BME280;4690;52.422;13.486;2023-04-16T05:10:18;101352.41;;;11.27;99.03
9695;BME280;4690;52.422;13.486;2023-04-16T05:12:46;101356.44;;;11.25;99.17
9695;BME280;4690;52.422;13.486;2023-04-16T05:15:13;101351.97;;;11.30;98.84
9695;BME280;4690;52.422;13.486;2023-04-16T05:17:38;101357.47;;;11.30;98.88
9695;BME280;4690;52.422;13.486;2023-04-16T05:20:05;101365.06;;;11.35;98.54
9695;BME280;4690;52.422;13.486;2023-04-16T05:22:32;101362.72;;;11.38;98.60
9695;BME280;4690;52.422;13.486;2023-04-16T05:24:58;101365.22;;;11.40;98.21
9695;BME280;4690;52.422;13.486;2023-04-16T05:27:23;101373.91;;;11.37;98.15
9695;BME280;4690;52.422;13.486;2023-04-16T05:29:49;101370.75;;;11.33;98.47
9695;BME280;4690;52.422;13.486;2023-04-16T05:32:15;101370.94;;;11.32;98.19
9695;BME280;4690;52.422;13.486;2023-04-16T05:34:40;101368.00;;;11.33;98.62
9695;BME280;4690;52.422;13.486;2023-04-16T05:37:06;101382.13;;;11.37;98.33
9695;BME280;4690;52.422;13.486;2023-04-16T05:39:32;101377.75;;;11.29;98.15
9695;BME280;4690;52.422;13.486;2023-04-16T05:41:57;101382.41;;;11.09;98.44
9695;BME280;4690;52.422;13.486;2023-04-16T05:44:24;101380.94;;;11.13;99.22
9695;BME280;4690;52.422;13.486;2023-04-16T05:46:50;101382.41;;;11.15;98.75
9695;BME280;4690;52.422;13.486;2023-04-16T05:49:16;101383.69;;;11.06;98.66
9695;BME280;4690;52.422;13.486;2023-04-16T05:51:43;101384.34;;;11.02;99.39
9695;BME280;4690;52.422;13.486;2023-04-16T05:54:09;101385.81;;;11.04;99.53
9695;BME280;4690;52.422;13.486;2023-04-16T05:56:35;101387.69;;;11.10;99.31
9695;BME280;4690;52.422;13.486;2023-04-16T05:59:00;101384.28;;;11.15;99.22
9695;BME280;4690;52.422;13.486;2023-04-16T06:01:26;101390.81;;;11.20;99.27
9695;BME280;4690;52.422;13.486;2023-04-16T06:03:52;101400.56;;;11.16;98.99
9695;BME280;4690;52.422;13.486;2023-04-16T06:06:18;101396.13;;;11.15;99.31
9695;BME280;4690;52.422;13.486;2023-04-16T06:08:43;101401.41;;;11.24;99.17
9695;BME280;4690;52.422;13.486;2023-04-16T06:11:09;101400.53;;;11.30;98.92
9695;BME280;4690;52.422;13.486;2023-04-16T06:13:36;101401.78;;;11.34;98.77
9695;BME280;4690;52.422;13.486;2023-04-16T06:16:01;101406.22;;;11.28;98.67
9695;BME280;4690;52.422;13.486;2023-04-16T06:18:27;101420.53;;;11.37;99.02
9695;BME280;4690;52.422;13.486;2023-04-16T06:20:53;101411.25;;;11.44;98.81
9695;BME280;4690;52.422;13.486;2023-04-16T06:23:19;101413.16;;;11.37;98.40
9695;BME280;4690;52.422;13.486;2023-04-16T06:25:45;101417.84;;;11.24;98.35
9695;BME280;4690;52.422;13.486;2023-04-16T06:28:11;101417.59;;;11.32;98.49
9695;BME280;4690;52.422;13.486;2023-04-16T06:30:38;101424.63;;;11.21;98.44
9695;BME280;4690;52.422;13.486;2023-04-16T06:33:04;101431.38;;;11.18;98.98
9695;BME280;4690;52.422;13.486;2023-04-16T06:35:30;101425.03;;;11.25;98.97
9695;BME280;4690;52.422;13.486;2023-04-16T06:37:55;101423.50;;;11.29;98.95
9695;BME280;4690;52.422;13.486;2023-04-16T06:40:21;101426.09;;;11.24;98.54
9695;BME280;4690;52.422;13.486;2023-04-16T06:42:47;101422.03;;;11.26;98.94
9695;BME280;4690;52.422;13.486;2023-04-16T06:45:13;101417.84;;;11.30;99.01
9695;BME280;4690;52.422;13.486;2023-04-16T06:47:39;101431.13;;;11.33;99.19
9695;BME280;4690;52.422;13.486;2023-04-16T06:50:05;101421.22;;;11.32;98.66
9695;BME280;4690;52.422;13.486;2023-04-16T06:52:31;101427.13;;;11.22;99.04
9695;BME280;4690;52.422;13.486;2023-04-16T06:54:57;101434.31;;;11.17;99.60
9695;BME280;4690;52.422;13.486;2023-04-16T06:57:23;101429.44;;;11.32;100.00
9695;BME280;4690;52.422;13.486;2023-04-16T06:59:49;101431.94;;;11.47;99.82
9695;BME280;4690;52.422;13.486;2023-04-16T07:02:15;101436.94;;;11.57;99.56
9695;BME280;4690;52.422;13.486;2023-04-16T07:04:41;101436.91;;;11.70;98.89
9695;BME280;4690;52.422;13.486;2023-04-16T07:07:07;101436.94;;;11.57;98.20
9695;BME280;4690;52.422;13.486;2023-04-16T07:09:33;101437.59;;;11.59;98.25
9695;BME280;4690;52.422;13.486;2023-04-16T07:11:59;101438.66;;;11.58;98.96
9695;BME280;4690;52.422;13.486;2023-04-16T07:14:25;101437.16;;;11.62;98.67
9695;BME280;4690;52.422;13.486;2023-04-16T07:16:51;101447.97;;;11.50;98.38
9695;BME280;4690;52.422;13.486;2023-04-16T07:19:16;101447.97;;;11.50;98.51
9695;BME280;4690;52.422;13.486;2023-04-16T07:21:42;101451.97;;;11.48;98.64
9695;BME280;4690;52.422;13.486;2023-04-16T07:24:09;101449.44;;;11.53;98.63
9695;BME280;4690;52.422;13.486;2023-04-16T07:26:38;101454.53;;;11.49;98.62
9695;BME280;4690;52.422;13.486;2023-04-16T07:29:04;101453.25;;;11.52;98.77
9695;BME280;4690;52.422;13.486;2023-04-16T07:31:30;101465.66;;;11.61;98.66
9695;BME280;4690;52.422;13.486;2023-04-16T07:33:56;101462.50;;;11.64;98.59
9695;BME280;4690;52.422;13.486;2023-04-16T07:36:22;101464.59;;;11.69;98.55
9695;BME280;4690;52.422;13.486;2023-04-16T07:38:48;101470.31;;;11.60;98.44
9695;BME280;4690;52.422;13.486;2023-04-16T07:41:14;101467.13;;;11.57;98.87
9695;BME280;4690;52.422;13.486;2023-04-16T07:43:40;101470.09;;;11.62;98.95
9695;BME280;4690;52.422;13.486;2023-04-16T07:46:05;101469.22;;;11.75;98.88
9695;BME280;4690;52.422;13.486;2023-04-16T07:48:31;101479.97;;;11.83;98.73
9695;BME280;4690;52.422;13.486;2023-04-16T07:50:57;101480.94;;;12.02;98.63
9695;BME280;4690;52.422;13.486;2023-04-16T07:53:23;101479.66;;;12.04;98.23
9695;BME280;4690;52.422;13.486;2023-04-16T07:55:48;101486.81;;;12.12;98.00
9695;BME280;4690;52.422;13.486;2023-04-16T07:58:14;101476.88;;;12.18;97.93
9695;BME280;4690;52.422;13.486;2023-04-16T08:00:40;101488.00;;;12.29;97.31
9695;BME280;4690;52.422;13.486;2023-04-16T08:03:06;101485.44;;;12.34;97.15
9695;BME280;4690;52.422;13.486;2023-04-16T08:05:31;101492.00;;;12.33;97.16
9695;BME280;4690;52.422;13.486;2023-04-16T08:07:57;101490.53;;;12.31;97.16
9695;BME280;4690;52.422;13.486;2023-04-16T08:10:23;101490.03;;;12.41;97.32
9695;BME280;4690;52.422;13.486;2023-04-16T08:12:48;101493.03;;;12.39;96.64
9695;BME280;4690;52.422;13.486;2023-04-16T08:15:15;101492.00;;;12.33;97.06
9695;BME280;4690;52.422;13.486;2023-04-16T08:17:41;101491.13;;;12.33;96.39
9695;BME280;4690;52.422;13.486;2023-04-16T08:20:07;101497.06;;;12.37;96.64
9695;BME280;4690;52.422;13.486;2023-04-16T08:22:33;101498.78;;;12.31;96.33
9695;BME280;4690;52.422;13.486;2023-04-16T08:24:59;101504.75;;;12.21;96.42
9695;BME280;4690;52.422;13.486;2023-04-16T08:27:25;101501.19;;;12.14;96.37
9695;BME280;4690;52.422;13.486;2023-04-16T08:29:50;101503.31;;;12.12;96.66
9695;BME280;4690;52.422;13.486;2023-04-16T08:32:16;101514.09;;;12.07;96.55
9695;BME280;4690;52.422;13.486;2023-04-16T08:34:42;101517.53;;;12.02;96.89
9695;BME280;4690;52.422;13.486;2023-04-16T08:37:08;101523.41;;;12.06;96.75
9695;BME280;4690;52.422;13.486;2023-04-16T08:39:34;101522.28;;;12.20;96.94
9695;BME280;4690;52.422;13.486;2023-04-16T08:42:04;101521.81;;;12.30;96.64
9695;BME280;4690;52.422;13.486;2023-04-16T08:44:36;101522.63;;;12.37;96.43
9695;BME280;4690;52.422;13.486;2023-04-16T08:47:08;101530.53;;;12.20;96.45
9695;BME280;4690;52.422;13.486;2023-04-16T08:49:43;101525.72;;;12.09;96.29
9695;BME280;4690;52.422;13.486;2023-04-16T08:52:17;101525.97;;;12.01;96.28
9695;BME280;4690;52.422;13.486;2023-04-16T08:55:01;101528.16;;;11.85;97.24
9695;BME280;4690;52.422;13.486;2023-04-16T08:57:43;101535.28;;;11.93;97.39
9695;BME280;4690;52.422;13.486;2023-04-16T09:00:13;101531.06;;;11.91;97.17
9695;BME280;4690;52.422;13.486;2023-04-16T09:02:39;101535.28;;;12.00;97.50
9695;BME280;4690;52.422;13.486;2023-04-16T09:05:07;101546.03;;;12.01;97.73
9695;BME280;4690;52.422;13.486;2023-04-16T09:07:35;101540.09;;;12.11;97.57
9695;BME280;4690;52.422;13.486;2023-04-16T09:10:02;101546.00;;;12.15;97.48
9695;BME280;4690;52.422;13.486;2023-04-16T09:12:29;101543.00;;;12.23;96.63
9695;BME280;4690;52.422;13.486;2023-04-16T09:14:56;101552.94;;;12.24;96.66
9695;BME280;4690;52.422;13.486;2023-04-16T09:17:25;101555.03;;;12.22;96.11
9695;BME280;4690;52.422;13.486;2023-04-16T09:19:52;101557.63;;;12.10;96.33
9695;BME280;4690;52.422;13.486;2023-04-16T09:22:18;101561.72;;;11.94;96.11
9695;BME280;4690;52.422;13.486;2023-04-16T09:24:44;101557.44;;;12.05;96.51
9695;BME280;4690;52.422;13.486;2023-04-16T09:27:11;101560.38;;;12.10;96.13
9695;BME280;4690;52.422;13.486;2023-04-16T09:29:41;101565.06;;;12.03;96.05
9695;BME280;4690;52.422;13.486;2023-04-16T09:32:11;101571.81;;;12.07;96.39
9695;BME280;4690;52.422;13.486;2023-04-16T09:35:00;101574.16;;;12.03;96.46
9695;BME280;4690;52.422;13.486;2023-04-16T09:37:28;101576.41;;;12.13;96.46
9695;BME280;4690;52.422;13.486;2023-04-16T09:39:59;101571.53;;;12.22;96.71
9695;BME280;4690;52.422;13.486;2023-04-16T09:42:31;101569.00;;;12.20;97.40
9695;BME280;4690;52.422;13.486;2023-04-16T09:44:58;101571.09;;;12.31;98.11
9695;BME280;4690;52.422;13.486;2023-04-16T09:47:42;101577.50;;;12.57;98.03
9695;BME280;4690;52.422;13.486;2023-04-16T09:50:09;101577.66;;;12.69;97.28
9695;BME280;4690;52.422;13.486;2023-04-16T09:52:38;101574.00;;;12.82;97.40
9695;BME280;4690;52.422;13.486;2023-04-16T09:55:05;101576.06;;;12.86;96.98
9695;BME280;4690;52.422;13.486;2023-04-16T09:57:31;101576.41;;;12.96;96.17
9695;BME280;4690;52.422;13.486;2023-04-16T10:00:06;101579.28;;;13.08;95.35
9695;BME280;4690;52.422;13.486;2023-04-16T10:02:34;101575.44;;;13.16;95.74
9695;BME280;4690;52.422;13.486;2023-04-16T10:05:03;101584.41;;;13.05;95.42
9695;BME280;4690;52.422;13.486;2023-04-16T10:07:35;101586.81;;;13.26;95.21
9695;BME280;4690;52.422;13.486;2023-04-16T10:10:02;101587.53;;;13.40;94.58
9695;BME280;4690;52.422;13.486;2023-04-16T10:12:29;101587.31;;;13.41;94.23
9695;BME280;4690;52.422;13.486;2023-04-16T10:14:57;101589.06;;;13.36;94.15
9695;BME280;4690;52.422;13.486;2023-04-16T10:17:23;101589.97;;;13.55;94.40
9695;BME280;4690;52.422;13.486;2023-04-16T10:19:52;101595.13;;;13.70;94.19
9695;BME280;4690;52.422;13.486;2023-04-16T10:22:18;101596.28;;;13.80;93.76
9695;BME280;4690;52.422;13.486;2023-04-16T10:24:46;101593.84;;;13.90;93.33
9695;BME280;4690;52.422;13.486;2023-04-16T10:27:13;101595.88;;;13.77;91.32
9695;BME280;4690;52.422;13.486;2023-04-16T10:29:39;101592.56;;;13.68;91.76
9695;BME280;4690;52.422;13.486;2023-04-16T10:32:06;101597.78;;;13.33;91.31
9695;BME280;4690;52.422;13.486;2023-04-16T10:34:33;101594.75;;;13.09;90.77
9695;BME280;4690;52.422;13.486;2023-04-16T10:36:59;101592.47;;;12.99;91.81
9695;BME280;4690;52.422;13.486;2023-04-16T10:39:27;101593.59;;;12.92;92.19
9695;BME280;4690;52.422;13.486;2023-04-16T10:42:11;101596.75;;;12.95;92.91
9695;BME280;4690;52.422;13.486;2023-04-16T10:44:38;101597.16;;;12.99;92.66
9695;BME280;4690;52.422;13.486;2023-04-16T10:47:13;101607.34;;;12.92;93.24
9695;BME280;4690;52.422;13.486;2023-04-16T10:49:40;101594.22;;;12.94;92.75
9695;BME280;4690;52.422;13.486;2023-04-16T10:52:12;101601.13;;;12.71;93.01
9695;BME280;4690;52.422;13.486;2023-04-16T10:54:39;101610.88;;;12.67;93.86
9695;BME280;4690;52.422;13.486;2023-04-16T10:57:14;101610.06;;;12.60;93.69
9695;BME280;4690;52.422;13.486;2023-04-16T10:59:42;101604.41;;;12.48;94.82
9695;BME280;4690;52.422;13.486;2023-04-16T11:02:14;101606.25;;;12.61;94.79
9695;BME280;4690;52.422;13.486;2023-04-16T11:04:45;101610.84;;;12.74;94.56
9695;BME280;4690;52.422;13.486;2023-04-16T11:13:08;101608.63;;;12.89;94.13
9695;BME280;4690;52.422;13.486;2023-04-16T11:15:27;101616.66;;;12.91;94.10
9695;BME280;4690;52.422;13.486;2023-04-16T11:17:55;101618.72;;;13.02;94.13
9695;BME280;4690;52.422;13.486;2023-04-16T11:20:24;101617.47;;;12.98;93.92
9695;BME280;4690;52.422;13.486;2023-04-16T11:22:56;101618.25;;;13.05;93.70
9695;BME280;4690;52.422;13.486;2023-04-16T11:25:28;101623.25;;;13.15;93.47
9695;BME280;4690;52.422;13.486;2023-04-16T11:27:55;101617.75;;;13.15;93.28
9695;BME280;4690;52.422;13.486;2023-04-16T11:30:37;101626.31;;;13.07;93.25
9695;BME280;4690;52.422;13.486;2023-04-16T11:33:03;101621.19;;;13.10;93.01
9695;BME280;4690;52.422;13.486;2023-04-16T11:35:30;101629.22;;;13.12;93.45
9695;BME280;4690;52.422;13.486;2023-04-16T11:37:57;101636.44;;;13.06;93.40
9695;BME280;4690;52.422;13.486;2023-04-16T11:40:23;101628.38;;;13.11;93.34
9695;BME280;4690;52.422;13.486;2023-04-16T11:42:49;101636.19;;;13.14;93.27
9695;BME280;4690;52.422;13.486;2023-04-16T11:45:15;101629.91;;;13.07;93.07
9695;BME280;4690;52.422;13.486;2023-04-16T11:47:45;101628.94;;;13.20;93.57
9695;BME280;4690;52.422;13.486;2023-04-16T11:52:45;101626.81;;;13.29;93.44
9695;BME280;4690;52.422;13.486;2023-04-16T11:55:12;101644.75;;;13.38;92.99
9695;BME280;4690;52.422;13.486;2023-04-16T11:57:38;101641.72;;;13.46;93.22
9695;BME280;4690;52.422;13.486;2023-04-16T12:00:04;101631.28;;;13.55;92.72
9695;BME280;4690;52.422;13.486;2023-04-16T12:02:41;101645.59;;;13.63;92.81
9695;BME280;4690;52.422;13.486;2023-04-16T12:07:54;101634.31;;;13.72;92.53
9695;BME280;4690;52.422;13.486;2023-04-16T12:10:20;101641.94;;;13.70;92.42
9695;BME280;4690;52.422;13.486;2023-04-16T12:12:45;101642.78;;;13.70;91.61
9695;BME280;4690;52.422;13.486;2023-04-16T12:15:11;101638.66;;;13.79;92.10
9695;BME280;4690;52.422;13.486;2023-04-16T12:17:37;101637.72;;;13.92;91.41
9695;BME280;4690;52.422;13.486;2023-04-16T12:20:08;101642.94;;;14.00;91.22
9695;BME280;4690;52.422;13.486;2023-04-16T12:22:46;101643.50;;;13.84;88.84
9695;BME280;4690;52.422;13.486;2023-04-16T12:25:15;101645.19;;;13.85;90.40
9695;BME280;4690;52.422;13.486;2023-04-16T12:27:51;101647.44;;;13.95;90.42
9695;BME280;4690;52.422;13.486;2023-04-16T12:30:19;101644.88;;;13.93;89.93
9695;BME280;4690;52.422;13.486;2023-04-16T12:32:49;101644.16;;;13.79;89.63
9695;BME280;4690;52.422;13.486;2023-04-16T12:35:33;101651.28;;;13.68;89.34
9695;BME280;4690;52.422;13.486;2023-04-16T12:37:59;101652.84;;;13.33;90.35
9695;BME280;4690;52.422;13.486;2023-04-16T12:40:25;101652.81;;;13.01;91.46
9695;BME280;4690;52.422;13.486;2023-04-16T12:42:51;101652.31;;;13.11;91.49
9695;BME280;4690;52.422;13.486;2023-04-16T12:45:17;101635.53;;;13.19;91.44
9695;BME280;4690;52.422;13.486;2023-04-16T12:47:43;101644.69;;;13.13;91.52
9695;BME280;4690;52.422;13.486;2023-04-16T12:50:09;101652.81;;;13.01;91.89
9695;BME280;4690;52.422;13.486;2023-04-16T12:52:35;101656.06;;;12.85;91.91
9695;BME280;4690;52.422;13.486;2023-04-16T12:55:01;101658.47;;;12.68;91.73
9695;BME280;4690;52.422;13.486;2023-04-16T12:57:27;101664.41;;;12.58;92.73
9695;BME280;4690;52.422;13.486;2023-04-16T12:59:55;101657.44;;;12.62;92.45
9695;BME280;4690;52.422;13.486;2023-04-16T13:02:24;101662.19;;;12.35;93.52
9695;BME280;4690;52.422;13.486;2023-04-16T13:04:51;101669.63;;;12.21;94.32
9695;BME280;4690;52.422;13.486;2023-04-16T13:07:17;101676.81;;;12.22;94.30
9695;BME280;4690;52.422;13.486;2023-04-16T13:09:45;101676.59;;;12.30;94.38
9695;BME280;4690;52.422;13.486;2023-04-16T13:12:11;101672.97;;;12.30;94.26
9695;BME280;4690;52.422;13.486;2023-04-16T13:14:37;101676.38;;;12.19;94.89